Time;durP1;ratioP1;P1;durP2;ratioP2;P2;SDS_P1;SDS_P2;PMS_P1;PMS_P2;Temp;Humidity;BMP_temperature;BMP_pressure;BME280_temperature;BME280_humidity;BME280_pressure;Samples;Min_cycle;Max_cycle;Signal;HPM_P1;HPM_P2
2023/01/09 00:01:19;;;;;;;18.45;10.85;;;;;;;-1.13;83.55;96931.94;5049680;28;20098;-63
2023/01/09 00:03:47;;;;;;;18.83;10.02;;;;;;;-1.10;82.85;96930.28;5049722;28;20081;-62
2023/01/09 00:06:15;;;;;;;14.15;8.77;;;;;;;-1.18;82.58;96921.59;5050136;28;20081;-64
2023/01/09 00:08:42;;;;;;;13.70;8.73;;;;;;;-1.21;82.85;96922.44;5049486;28;20045;-60
2023/01/09 00:11:10;;;;;;;18.33;8.90;;;;;;;-1.18;82.13;96925.03;5049440;28;20071;-61
2023/01/09 00:13:39;;;;;;;12.25;9.10;;;;;;;-1.27;82.22;96924.91;5051046;28;20056;-61
2023/01/09 00:16:07;;;;;;;11.45;8.13;;;;;;;-1.29;82.48;96913.75;5052931;28;20049;-63
2023/01/09 00:18:35;;;;;;;13.10;8.80;;;;;;;-1.24;82.84;96924.09;5052856;28;20077;-63
2023/01/09 00:21:02;;;;;;;10.95;7.85;;;;;;;-1.21;83.28;96917.28;5053005;28;20158;-61
2023/01/09 00:23:31;;;;;;;16.08;9.25;;;;;;;-1.20;83.38;96918.16;5052841;28;20101;-63
2023/01/09 00:26:03;;;;;;;13.45;9.05;;;;;;;-1.16;83.83;96922.50;5052815;28;20080;-60
2023/01/09 00:28:30;;;;;;;20.83;9.55;;;;;;;-1.11;83.76;96918.31;5052713;28;20049;-60
2023/01/09 00:30:57;;;;;;;13.18;8.90;;;;;;;-1.07;83.43;96922.63;5052741;28;20045;-61
2023/01/09 00:33:28;;;;;;;19.05;8.77;;;;;;;-1.05;83.87;96922.66;5052724;28;20418;-62
2023/01/09 00:35:55;;;;;;;15.65;8.90;;;;;;;-1.07;82.98;96914.94;5052570;28;20048;-60
2023/01/09 00:38:23;;;;;;;16.67;9.45;;;;;;;-1.09;83.05;96913.19;5052520;28;20055;-60
2023/01/09 00:40:55;;;;;;;16.23;9.50;;;;;;;-1.02;83.36;96917.56;5052593;28;20459;-60
2023/01/09 00:43:28;;;;;;;16.83;10.50;;;;;;;-0.94;83.68;96915.97;5052381;28;20446;-62
2023/01/09 00:45:55;;;;;;;13.90;8.77;;;;;;;-0.90;81.96;96915.16;5052443;28;20105;-62
2023/01/09 00:48:25;;;;;;;13.75;8.43;;;;;;;-0.89;82.16;96908.31;5052511;28;20041;-63
2023/01/09 00:50:54;;;;;;;15.25;10.27;;;;;;;-0.88;82.55;96904.06;5052290;28;20053;-61
2023/01/09 00:53:23;;;;;;;12.93;9.70;;;;;;;-0.88;83.60;96907.47;5052432;28;20048;-61
2023/01/09 00:55:53;;;;;;;15.50;10.43;;;;;;;-0.90;84.52;96912.56;5052368;28;20044;-63
2023/01/09 00:58:20;;;;;;;21.73;11.50;;;;;;;-0.81;85.14;96900.72;5052361;28;20110;-62
2023/01/09 01:00:47;;;;;;;17.35;11.60;;;;;;;-0.73;85.57;96893.09;5052312;28;20045;-60
2023/01/09 01:03:15;;;;;;;17.95;11.85;;;;;;;-0.62;86.63;96888.06;5052264;28;20041;-64
2023/01/09 01:08:26;;;;;;;23.77;14.77;;;;;;;-0.29;89.35;96885.03;5052211;28;20513;-62
2023/01/09 01:10:55;;;;;;;25.80;14.90;;;;;;;-0.19;89.49;96885.13;5052202;28;20049;-61
2023/01/09 01:13:22;;;;;;;26.00;14.68;;;;;;;-0.11;89.34;96875.78;5052179;28;20041;-63
2023/01/09 01:15:49;;;;;;;18.15;12.18;;;;;;;-0.03;88.69;96878.44;5051956;28;20403;-64
2023/01/09 01:18:16;;;;;;;16.95;11.93;;;;;;;0.01;88.14;96872.47;5051849;28;20109;-61
2023/01/09 01:20:44;;;;;;;19.38;11.73;;;;;;;0.05;87.41;96879.34;5052010;28;20045;-63
2023/01/09 01:23:12;;;;;;;21.83;10.43;;;;;;;0.06;86.33;96872.50;5052018;28;20069;-64
2023/01/09 01:25:40;;;;;;;15.85;10.20;;;;;;;0.07;86.32;96876.81;5051910;28;20092;-61
2023/01/09 01:28:09;;;;;;;17.92;11.10;;;;;;;0.09;86.09;96873.38;5051878;28;20088;-63
2023/01/09 01:30:38;;;;;;;15.32;10.40;;;;;;;0.12;85.88;96864.84;5051874;28;20490;-62
2023/01/09 01:33:05;;;;;;;20.63;12.18;;;;;;;0.20;85.79;96858.03;5051760;28;20049;-63
2023/01/09 01:35:32;;;;;;;21.63;12.23;;;;;;;0.30;86.39;96855.56;5051871;28;20083;-64
2023/01/09 01:38:00;;;;;;;17.40;10.90;;;;;;;0.31;86.30;96850.44;5051610;28;20399;-63
2023/01/09 01:40:27;;;;;;;33.15;16.30;;;;;;;0.43;88.41;96848.78;5051805;28;20565;-62
2023/01/09 01:42:55;;;;;;;16.58;12.02;;;;;;;0.54;89.24;96852.28;5051473;28;20063;-61
2023/01/09 01:45:27;;;;;;;17.50;12.13;;;;;;;0.50;88.57;96841.13;5051639;28;20070;-61
2023/01/09 01:48:00;;;;;;;20.77;11.85;;;;;;;0.50;87.77;96851.41;5051682;28;20060;-63
2023/01/09 01:50:32;;;;;;;19.13;12.70;;;;;;;0.55;87.96;96848.00;5051638;28;20073;-62
2023/01/09 01:53:04;;;;;;;21.38;12.10;;;;;;;0.54;87.34;96841.97;5051558;28;20049;-64
2023/01/09 01:55:35;;;;;;;20.00;11.73;;;;;;;0.58;86.81;96843.75;5051460;28;20444;-64
2023/01/09 01:58:05;;;;;;;19.85;11.48;;;;;;;0.61;86.05;96838.59;5051363;28;20084;-60
2023/01/09 02:00:38;;;;;;;17.85;11.32;;;;;;;0.64;85.96;96832.63;5051222;28;20109;-62
2023/01/09 02:03:07;;;;;;;18.75;11.38;;;;;;;0.68;85.59;96829.22;5051296;28;20049;-60
2023/01/09 02:05:36;;;;;;;16.02;11.45;;;;;;;0.67;85.12;96830.06;5051335;28;20474;-63
2023/01/09 02:08:03;;;;;;;22.23;11.38;;;;;;;0.70;84.79;96819.78;5051268;28;20495;-64
2023/01/09 02:10:31;;;;;;;15.07;10.35;;;;;;;0.73;84.39;96816.34;5051200;28;20051;-63
2023/01/09 02:12:59;;;;;;;14.55;10.85;;;;;;;0.73;84.63;96817.19;5051255;28;20486;-64
2023/01/09 02:15:30;;;;;;;15.98;11.40;;;;;;;0.72;84.58;96802.59;5051164;28;20048;-63
2023/01/09 02:18:32;;;;;;;18.20;11.57;;;;;;;0.79;84.33;96811.25;5051019;28;20049;-61
2023/01/09 02:21:01;;;;;;;16.05;10.93;;;;;;;0.84;84.19;96809.53;5051048;28;20135;-62
2023/01/09 02:24:09;;;;;;;18.20;11.23;;;;;;;0.87;84.37;96813.84;5051024;28;20137;-60
2023/01/09 02:26:55;;;;;;;12.93;10.23;;;;;;;0.87;84.01;96809.56;5050939;28;20133;-62
2023/01/09 02:30:09;;;;;;;17.20;10.77;;;;;;;0.87;84.39;96803.53;5050915;28;20765;-62
2023/01/09 02:32:49;;;;;;;16.42;10.57;;;;;;;0.79;84.28;96782.91;5050848;28;20045;-63
2023/01/09 02:35:41;;;;;;;17.23;11.07;;;;;;;0.88;85.09;96790.66;5050442;28;20136;-63
2023/01/09 02:38:19;;;;;;;21.42;12.82;;;;;;;0.96;85.07;96795.84;5050739;28;20084;-62
2023/01/09 02:40:56;;;;;;;19.95;12.05;;;;;;;1.03;85.22;96783.88;5050729;28;20420;-62
2023/01/09 02:43:24;;;;;;;18.58;11.65;;;;;;;1.04;85.10;96788.16;5050671;28;20049;-61
2023/01/09 02:45:51;;;;;;;21.70;13.05;;;;;;;1.09;85.42;96790.75;5050582;28;20589;-64
2023/01/09 02:48:20;;;;;;;15.52;12.25;;;;;;;1.10;85.67;96784.75;5050635;28;20053;-62
2023/01/09 02:50:59;;;;;;;16.17;12.45;;;;;;;1.16;85.60;96786.47;5050668;28;20171;-63
2023/01/09 02:54:06;;;;;;;19.17;11.52;;;;;;;1.24;85.99;96783.06;5050609;28;20048;-63
2023/01/09 02:56:48;;;;;;;30.42;14.60;;;;;;;1.31;87.07;96783.94;5050463;28;20522;-61
2023/01/09 02:59:25;;;;;;;23.25;14.63;;;;;;;1.41;87.89;96779.66;5050321;28;20045;-62
2023/01/09 03:02:06;;;;;;;21.35;12.85;;;;;;;1.49;87.90;96774.53;5050323;28;20091;-65
2023/01/09 03:04:46;;;;;;;20.65;14.43;;;;;;;1.56;87.73;96781.41;5050479;28;20053;-65
2023/01/09 03:07:21;;;;;;;25.02;15.57;;;;;;;1.61;88.15;96777.13;5050327;28;20090;-60
2023/01/09 03:09:54;;;;;;;23.83;15.02;;;;;;;1.68;88.81;96778.00;5050396;28;20049;-64
2023/01/09 03:12:26;;;;;;;30.60;15.82;;;;;;;1.78;89.87;96768.56;5050233;28;20080;-60
2023/01/09 03:14:58;;;;;;;28.65;18.50;;;;;;;1.83;89.82;96763.38;5050245;28;20052;-62
2023/01/09 03:17:29;;;;;;;24.60;14.35;;;;;;;1.83;88.88;96769.41;5050291;28;20045;-63
2023/01/09 03:20:01;;;;;;;21.98;13.93;;;;;;;1.83;88.72;96769.41;5050013;28;20145;-62
2023/01/09 03:22:28;;;;;;;25.85;14.50;;;;;;;1.88;88.40;96764.25;5050081;28;20398;-63
2023/01/09 03:24:55;;;;;;;25.17;16.02;;;;;;;1.93;87.94;96762.56;5050104;28;20056;-66
2023/01/09 03:27:22;;;;;;;21.45;13.48;;;;;;;1.97;87.66;96763.41;5050108;28;20049;-65
2023/01/09 03:29:50;;;;;;;18.17;12.65;;;;;;;2.01;87.37;96771.13;5050090;28;20144;-62
2023/01/09 03:32:17;;;;;;;25.80;13.93;;;;;;;2.04;87.61;96765.09;5050020;28;20128;-66
2023/01/09 03:34:44;;;;;;;24.27;11.68;;;;;;;2.07;86.82;96765.09;5049914;28;20140;-61
2023/01/09 03:37:12;;;;;;;18.38;13.18;;;;;;;2.04;86.84;96765.09;5049984;28;20388;-63
2023/01/09 03:39:39;;;;;;;22.50;12.90;;;;;;;1.98;87.11;96760.81;5049977;28;20060;-64
2023/01/09 03:42:06;;;;;;;24.58;15.27;;;;;;;1.95;87.11;96763.38;5049607;28;20088;-66
2023/01/09 03:44:33;;;;;;;23.88;13.75;;;;;;;2.02;87.52;96766.84;5049901;28;20131;-63
2023/01/09 03:47:00;;;;;;;19.20;12.93;;;;;;;2.07;87.08;96759.94;5049825;28;20052;-63
2023/01/09 03:49:27;;;;;;;32.92;17.63;;;;;;;2.13;87.39;96759.06;5052717;28;20081;-65
2023/01/09 03:51:54;;;;;;;24.38;16.17;;;;;;;2.23;88.21;96765.09;5053405;28;20102;-61
2023/01/09 03:54:23;;;;;;;27.45;15.98;;;;;;;2.29;87.40;96762.53;5053308;28;20139;-64
2023/01/09 03:56:50;;;;;;;20.38;12.20;;;;;;;2.31;86.73;96765.06;5053386;28;20045;-64
2023/01/09 03:59:17;;;;;;;30.40;16.90;;;;;;;2.29;86.48;96770.28;5053111;28;20059;-61
2023/01/09 04:01:44;;;;;;;22.17;13.70;;;;;;;2.26;87.00;96767.69;5053114;28;20099;-64
2023/01/09 04:04:11;;;;;;;24.05;14.82;;;;;;;2.22;86.68;96766.81;5053127;28;20076;-62
2023/01/09 04:06:38;;;;;;;19.08;13.23;;;;;;;2.09;86.03;96765.09;5053138;28;20041;-61
2023/01/09 04:09:05;;;;;;;30.02;18.15;;;;;;;2.10;85.94;96759.94;5053069;28;20046;-64
2023/01/09 04:11:34;;;;;;;26.33;17.35;;;;;;;2.11;86.26;96763.41;5053054;28;20141;-62
2023/01/09 04:14:01;;;;;;;27.30;17.20;;;;;;;2.20;86.43;96762.53;5053055;28;20080;-65
2023/01/09 04:16:28;;;;;;;31.13;18.83;;;;;;;2.28;87.44;96768.53;5052966;28;20093;-67
2023/01/09 04:18:55;;;;;;;25.08;16.80;;;;;;;2.34;87.05;96758.19;5052823;28;20139;-65
2023/01/09 04:21:22;;;;;;;36.40;22.90;;;;;;;2.29;87.55;96761.66;5052843;28;20151;-63
2023/01/09 04:23:49;;;;;;;46.45;24.88;;;;;;;2.38;88.53;96759.91;5052978;28;20506;-61
2023/01/09 04:26:16;;;;;;;24.02;16.88;;;;;;;2.50;89.22;96761.59;5052749;28;20056;-62
2023/01/09 04:28:45;;;;;;;28.52;18.55;;;;;;;2.53;88.44;96766.75;5052838;28;20495;-66
2023/01/09 04:31:12;;;;;;;29.35;18.83;;;;;;;2.58;88.47;96765.88;5052871;28;20041;-65
2023/01/09 04:33:39;;;;;;;30.40;18.83;;;;;;;2.61;88.69;96771.03;5052790;28;20049;-64
2023/01/09 04:36:07;;;;;;;39.83;22.38;;;;;;;2.58;88.25;96777.09;5052666;28;20080;-65
2023/01/09 04:38:34;;;;;;;48.00;20.65;;;;;;;2.53;87.18;96779.69;5052492;28;20113;-65
2023/01/09 04:41:02;;;;;;;47.72;19.42;;;;;;;2.51;86.66;96780.56;5052642;28;20074;-64
2023/01/09 04:43:29;;;;;;;31.85;18.20;;;;;;;2.45;85.11;96781.44;5051379;28;20045;-61
2023/01/09 04:45:57;;;;;;;47.72;23.20;;;;;;;2.37;85.36;96786.59;5051269;28;20080;-62
2023/01/09 04:48:24;;;;;;;50.65;22.92;;;;;;;2.41;85.40;96787.47;5051246;28;20055;-63
2023/01/09 04:50:51;;;;;;;35.42;21.85;;;;;;;2.42;86.83;96789.19;5051273;28;20049;-64
2023/01/09 04:53:18;;;;;;;39.55;22.50;;;;;;;2.53;87.93;96778.84;5051188;28;20482;-63
2023/01/09 04:55:46;;;;;;;43.13;21.88;;;;;;;2.63;88.17;96785.69;5051273;28;20048;-62
2023/01/09 04:58:13;;;;;;;32.00;17.73;;;;;;;2.60;87.82;96783.13;5051287;28;20070;-64
2023/01/09 05:00:40;;;;;;;33.20;19.23;;;;;;;2.60;87.17;96777.94;5050842;28;20081;-61
2023/01/09 05:03:09;;;;;;;33.80;19.75;;;;;;;2.65;86.94;96781.38;5051066;28;20060;-62
2023/01/09 05:05:36;;;;;;;37.45;18.38;;;;;;;2.68;86.75;96772.75;5051073;28;20414;-62
2023/01/09 05:08:04;;;;;;;33.40;20.90;;;;;;;2.71;86.68;96770.16;5051043;28;20052;-64
2023/01/09 05:10:31;;;;;;;39.35;21.75;;;;;;;2.75;86.58;96773.59;5050979;28;20045;-64
2023/01/09 05:12:58;;;;;;;42.45;21.70;;;;;;;2.81;87.45;96773.59;5051035;28;20097;-64
2023/01/09 05:15:27;;;;;;;39.42;20.70;;;;;;;2.91;88.51;96776.97;5051033;28;20106;-67
2023/01/09 05:17:54;;;;;;;37.13;19.25;;;;;;;2.94;88.28;96771.81;5050851;28;20136;-64
2023/01/09 05:20:23;;;;;;;24.98;16.45;;;;;;;2.93;87.28;96766.63;5050837;28;20074;-65
2023/01/09 05:22:50;;;;;;;29.02;16.38;;;;;;;2.92;86.95;96764.94;5050958;28;20499;-62
2023/01/09 05:25:18;;;;;;;31.83;18.30;;;;;;;2.93;87.37;96767.50;5050976;28;20049;-66
2023/01/09 05:27:46;;;;;;;37.15;22.95;;;;;;;3.02;88.59;96762.31;5050950;28;20120;-65
2023/01/09 05:30:14;;;;;;;25.25;16.10;;;;;;;3.00;87.82;96764.03;5050778;28;20478;-62
2023/01/09 05:32:41;;;;;;;31.10;16.23;;;;;;;2.97;87.28;96760.59;5050791;28;20053;-67
2023/01/09 05:35:08;;;;;;;29.50;17.63;;;;;;;2.92;86.62;96760.59;5050713;28;20056;-65
2023/01/09 05:37:37;;;;;;;24.23;15.60;;;;;;;2.85;86.27;96761.50;5050806;28;20060;-64
2023/01/09 05:40:05;;;;;;;27.10;17.92;;;;;;;2.81;86.10;96762.38;5050641;28;20052;-64
2023/01/09 05:42:32;;;;;;;36.00;23.35;;;;;;;2.83;86.22;96763.25;5002657;28;1381572;-63
2023/01/09 05:44:59;;;;;;;39.42;25.00;;;;;;;2.85;86.60;96764.06;5051544;28;20486;-65
2023/01/09 05:47:26;;;;;;;37.05;20.33;;;;;;;2.91;87.05;96771.81;5051843;27;20049;-67
2023/01/09 05:49:55;;;;;;;47.33;24.55;;;;;;;2.94;87.13;96764.06;5051488;28;20080;-64
2023/01/09 05:52:22;;;;;;;45.15;25.15;;;;;;;2.96;87.52;96770.09;5051585;28;20483;-64
2023/01/09 05:54:51;;;;;;;46.17;24.63;;;;;;;2.96;87.36;96764.91;5051798;28;20482;-61
2023/01/09 05:57:18;;;;;;;34.55;20.65;;;;;;;3.04;87.43;96764.84;5051490;28;20128;-61
2023/01/09 05:59:45;;;;;;;37.03;21.50;;;;;;;3.12;87.32;96770.00;5051295;28;20395;-64
2023/01/09 06:02:13;;;;;;;49.13;26.20;;;;;;;3.07;87.72;96767.44;5051334;28;20049;-67
2023/01/09 06:04:42;;;;;;;34.22;20.00;;;;;;;3.10;87.04;96770.00;5051286;28;20041;-64
2023/01/09 06:07:10;;;;;;;31.92;18.48;;;;;;;3.02;86.05;96777.81;5051230;28;20074;-64
2023/01/09 06:09:37;;;;;;;38.47;19.77;;;;;;;2.99;85.96;96775.25;5051228;28;20141;-65
2023/01/09 06:12:06;;;;;;;42.97;18.45;;;;;;;2.97;85.39;96776.09;5050270;28;20131;-64
2023/01/09 06:14:35;;;;;;;40.03;22.58;;;;;;;2.99;85.10;96770.06;5051117;28;20045;-67
2023/01/09 06:17:03;;;;;;;40.85;20.98;;;;;;;2.98;85.22;96783.84;5051152;28;20117;-62
2023/01/09 06:19:30;;;;;;;45.95;19.55;;;;;;;2.97;85.00;96773.50;5051022;28;20048;-65
2023/01/09 06:21:57;;;;;;;49.10;23.95;;;;;;;3.01;84.89;96772.66;5051070;28;20041;-64
2023/01/09 06:24:25;;;;;;;55.75;26.30;;;;;;;3.07;85.70;96774.34;5051091;28;20098;-61
2023/01/09 06:26:52;;;;;;;48.15;25.75;;;;;;;3.13;86.55;96779.50;5050971;28;20128;-61
2023/01/09 06:29:20;;;;;;;57.45;28.52;;;;;;;3.19;86.57;96768.25;5050840;28;20053;-64
2023/01/09 06:31:48;;;;;;;49.35;25.90;;;;;;;3.24;87.01;96769.94;5050795;28;20452;-65
2023/01/09 06:34:15;;;;;;;46.70;24.83;;;;;;;3.30;86.79;96771.66;5050803;28;20435;-64
2023/01/09 06:36:42;;;;;;;44.05;21.90;;;;;;;3.32;86.62;96772.50;5050786;28;20101;-65
2023/01/09 06:39:09;;;;;;;45.70;23.77;;;;;;;3.38;86.31;96776.78;5050750;28;20132;-64
2023/01/09 06:41:36;;;;;;;39.92;23.58;;;;;;;3.45;86.12;96775.88;5050624;28;20501;-66
2023/01/09 06:44:03;;;;;;;45.75;24.63;;;;;;;3.48;86.08;96770.69;5050641;28;20132;-61
2023/01/09 06:46:32;;;;;;;51.28;22.75;;;;;;;3.53;86.14;96773.25;5050656;28;20136;-65
2023/01/09 06:48:59;;;;;;;47.50;23.73;;;;;;;3.59;85.64;96778.38;5050562;28;20486;-65
2023/01/09 06:51:26;;;;;;;50.85;24.25;;;;;;;3.60;85.74;96772.34;5050691;28;20052;-63
2023/01/09 06:53:53;;;;;;;47.03;23.58;;;;;;;3.65;86.07;96767.97;5050708;28;20045;-63
2023/01/09 06:56:20;;;;;;;49.80;24.73;;;;;;;3.73;86.12;96770.50;5050615;28;20049;-63
2023/01/09 06:58:48;;;;;;;44.20;23.90;;;;;;;3.77;86.56;96764.44;5050404;28;20132;-62
2023/01/09 07:01:15;;;;;;;49.95;24.02;;;;;;;3.80;86.47;96773.94;5050356;28;20051;-61
2023/01/09 07:03:43;;;;;;;49.58;22.67;;;;;;;3.82;86.20;96764.41;5050425;28;20114;-66
2023/01/09 07:06:10;;;;;;;41.40;24.77;;;;;;;3.86;86.29;96765.25;5050507;28;20418;-60
2023/01/09 07:08:37;;;;;;;44.28;25.58;;;;;;;3.86;86.38;96765.25;5050364;28;20440;-62
2023/01/09 07:11:05;;;;;;;43.30;24.75;;;;;;;3.86;86.35;96755.78;5050289;28;20482;-66
2023/01/09 07:13:32;;;;;;;46.22;26.63;;;;;;;3.90;86.26;96754.88;5050243;28;20068;-66
2023/01/09 07:16:01;;;;;;;51.80;28.30;;;;;;;3.95;86.47;96754.84;5050316;28;20052;-64
2023/01/09 07:18:29;;;;;;;75.22;43.05;;;;;;;4.00;86.40;96750.47;5050228;28;20060;-64
2023/01/09 07:20:57;;;;;;;46.08;23.65;;;;;;;3.93;86.36;96746.22;5050143;28;20452;-64
2023/01/09 07:23:25;;;;;;;57.00;22.20;;;;;;;3.91;85.28;96743.63;5050084;28;20075;-64
2023/01/09 07:25:52;;;;;;;54.30;23.85;;;;;;;3.86;85.65;96747.13;5050142;28;20077;-64
2023/01/09 07:28:19;;;;;;;56.63;26.60;;;;;;;3.86;85.85;96747.13;5050129;28;20092;-63
2023/01/09 07:30:46;;;;;;;68.03;31.15;;;;;;;3.93;85.60;96738.44;5050032;28;20223;-63
2023/01/09 07:33:13;;;;;;;66.35;32.33;;;;;;;3.99;85.59;96738.41;5049979;28;20144;-65
2023/01/09 07:35:41;;;;;;;120.85;63.47;;;;;;;4.02;86.06;96742.69;5050011;28;20041;-61
2023/01/09 07:38:09;;;;;;;87.85;49.92;;;;;;;4.08;86.28;96746.94;5049901;28;20093;-66
2023/01/09 07:40:37;;;;;;;60.08;27.33;;;;;;;4.07;86.26;96746.09;5049832;28;20080;-64
2023/01/09 07:43:04;;;;;;;57.03;31.17;;;;;;;4.05;86.01;96740.06;5049676;28;20060;-62
2023/01/09 07:45:31;;;;;;;71.05;35.67;;;;;;;4.11;85.94;96744.34;5049885;28;20047;-67
2023/01/09 07:47:58;;;;;;;66.25;32.92;;;;;;;4.16;86.23;96745.16;5049936;28;20053;-63
2023/01/09 07:50:25;;;;;;;73.25;37.35;;;;;;;4.13;86.06;96751.22;5049776;28;20049;-67
2023/01/09 07:52:52;;;;;;;68.00;37.05;;;;;;;4.14;86.14;96737.41;5049753;28;20053;-65
2023/01/09 07:55:21;;;;;;;76.60;36.92;;;;;;;4.17;86.16;96739.97;5049803;28;20053;-66
2023/01/09 07:57:50;;;;;;;66.53;34.20;;;;;;;4.23;86.99;96741.66;5049770;28;20059;-63
2023/01/09 08:00:19;;;;;;;61.10;30.25;;;;;;;4.33;87.45;96738.97;5049575;28;20052;-63
2023/01/09 08:02:51;;;;;;;58.00;24.73;;;;;;;4.35;88.10;96735.47;5049744;28;20049;-66
2023/01/09 08:05:18;;;;;;;52.15;26.10;;;;;;;4.39;87.90;96725.94;5049630;28;20456;-64
2023/01/09 08:07:49;;;;;;;61.60;29.58;;;;;;;4.45;87.84;96728.47;5049525;28;20171;-66
2023/01/09 08:10:18;;;;;;;73.13;33.47;;;;;;;4.55;88.02;96721.47;5049557;28;20059;-64
2023/01/09 08:12:48;;;;;;;63.90;32.33;;;;;;;4.62;87.73;96717.06;5049673;28;20097;-62
2023/01/09 08:15:15;;;;;;;61.33;28.27;;;;;;;4.67;87.99;96729.09;5049533;28;20053;-64
2023/01/09 08:17:43;;;;;;;60.72;29.80;;;;;;;4.75;87.58;96725.53;5049544;28;20049;-65
2023/01/09 08:20:12;;;;;;;59.78;31.90;;;;;;;4.79;87.20;96733.25;5049447;28;20048;-65
2023/01/09 08:22:41;;;;;;;55.08;29.65;;;;;;;4.84;86.78;96727.19;5049345;28;20088;-64
2023/01/09 08:25:10;;;;;;;62.60;29.23;;;;;;;4.72;85.98;96733.38;5049462;28;20436;-66
2023/01/09 08:27:37;;;;;;;75.65;31.55;;;;;;;4.70;85.61;96732.53;5049522;28;20128;-66
2023/01/09 08:30:08;;;;;;;74.30;34.67;;;;;;;4.72;85.57;96734.22;5049502;28;20041;-65
2023/01/09 08:32:36;;;;;;;80.72;39.80;;;;;;;4.80;85.44;96734.13;5049412;28;20048;-63
2023/01/09 08:35:03;;;;;;;78.97;32.65;;;;;;;4.83;85.61;96722.88;5051523;28;20063;-65
2023/01/09 08:37:30;;;;;;;63.78;30.50;;;;;;;4.87;85.30;96719.34;5052646;28;20060;-64
2023/01/09 08:39:57;;;;;;;75.18;29.95;;;;;;;4.96;85.06;96718.41;5052556;28;20087;-63
2023/01/09 08:47:57;;;;;;;75.65;35.63;;;;;;;5.05;86.13;96711.34;5052573;28;20154;-63
2023/01/09 08:50:24;;;;;;;67.80;30.95;;;;;;;5.19;85.21;96710.31;5052443;28;20053;-63
2023/01/09 08:52:51;;;;;;;76.95;34.10;;;;;;;5.20;85.33;96708.59;5052586;28;20120;-65
2023/01/09 08:55:18;;;;;;;73.55;37.42;;;;;;;5.29;85.02;96706.72;5052330;28;20455;-64
2023/01/09 08:57:49;;;;;;;79.53;40.17;;;;;;;5.38;85.05;96708.31;5052251;28;20081;-63
2023/01/09 09:00:19;;;;;;;60.28;28.80;;;;;;;5.48;84.39;96701.22;5052250;28;20057;-66
2023/01/09 09:02:51;;;;;;;40.45;22.00;;;;;;;5.56;82.50;96712.38;5052249;28;20501;-64
2023/01/09 09:05:18;;;;;;;56.22;28.88;;;;;;;5.47;83.04;96709.03;5052317;28;20049;-65
2023/01/09 09:07:48;;;;;;;65.82;30.30;;;;;;;5.49;83.56;96696.91;5052152;28;20486;-65
2023/01/09 09:10:16;;;;;;;64.73;31.83;;;;;;;5.48;83.42;96703.81;5052197;28;20045;-66
2023/01/09 09:12:43;;;;;;;57.72;29.45;;;;;;;5.35;83.17;96691.91;5052183;28;20353;-66
2023/01/09 09:15:15;;;;;;;53.60;28.48;;;;;;;5.38;83.27;96678.91;5052108;28;20501;-66
2023/01/09 09:17:44;;;;;;;56.92;28.40;;;;;;;5.53;83.04;96673.50;5052021;28;20084;-64
2023/01/09 09:20:12;;;;;;;52.85;28.23;;;;;;;5.63;82.68;96674.19;5051918;28;20414;-65
2023/01/09 09:22:39;;;;;;;48.45;25.55;;;;;;;5.67;82.57;96668.09;5051929;28;20045;-64
2023/01/09 09:25:07;;;;;;;51.03;26.02;;;;;;;5.75;81.98;96665.34;5051900;28;20049;-65
2023/01/09 09:27:35;;;;;;;43.92;23.35;;;;;;;5.74;82.19;96663.63;5051934;28;20072;-66
2023/01/09 09:30:02;;;;;;;49.63;25.15;;;;;;;5.67;81.56;96659.44;5051923;28;20091;-63
2023/01/09 09:32:32;;;;;;;49.72;25.45;;;;;;;5.59;82.12;96654.38;5051938;28;20057;-66
2023/01/09 09:35:02;;;;;;;49.38;25.98;;;;;;;5.65;81.69;96658.59;5051812;28;20561;-64
2023/01/09 09:37:30;;;;;;;45.85;22.70;;;;;;;5.73;81.32;96650.69;5051802;28;20136;-62
2023/01/09 09:39:57;;;;;;;43.63;22.83;;;;;;;5.74;81.36;96642.00;5051604;28;20045;-65
2023/01/09 09:45:42;;;;;;;42.78;23.98;;;;;;;5.82;80.74;96630.59;5050437;28;20106;-63
2023/01/09 09:48:28;;;;;;;45.95;24.35;;;;;;;5.86;80.25;96622.75;5051652;28;20071;-63
2023/01/09 09:51:11;;;;;;;42.13;25.08;;;;;;;5.85;80.23;96624.53;5051597;28;20045;-64
2023/01/09 09:53:47;;;;;;;45.45;22.10;;;;;;;5.74;79.70;96627.28;5051442;28;20052;-64
2023/01/09 09:56:18;;;;;;;39.15;22.13;;;;;;;5.35;79.77;96632.25;5051600;28;20041;-63
2023/01/09 09:58:48;;;;;;;44.20;23.95;;;;;;;5.39;80.71;96626.16;5051563;28;20049;-62
2023/01/09 10:01:21;;;;;;;46.58;27.20;;;;;;;5.44;80.50;96626.91;5051360;28;20049;-64
2023/01/09 10:03:52;;;;;;;45.22;23.10;;;;;;;5.41;80.35;96627.84;5051365;28;20045;-67
2023/01/09 10:06:25;;;;;;;;;;;;;;;5.41;79.99;96620.06;5051836;28;20418;-65
2023/01/09 10:09:00;;;;;;;33.10;19.75;;;;;;;5.35;79.91;96617.53;5051218;28;20016;-63
2023/01/09 10:11:34;;;;;;;38.75;22.38;;;;;;;5.39;79.66;96615.78;5051325;28;20049;-66
2023/01/09 10:14:07;;;;;;;41.15;23.00;;;;;;;5.40;79.68;96617.47;5051208;28;20122;-64
2023/01/09 10:16:52;;;;;;;35.17;22.23;;;;;;;5.44;78.92;96607.03;5051069;28;20056;-65
2023/01/09 10:19:36;;;;;;;46.40;23.05;;;;;;;5.42;77.83;96600.16;5051092;28;20049;-62
2023/01/09 10:22:18;;;;;;;48.83;28.27;;;;;;;5.48;78.53;96600.03;5050958;28;20483;-63
2023/01/09 10:25:04;;;;;;;54.47;28.73;;;;;;;5.52;78.70;96603.44;5051013;28;20804;-63
2023/01/09 10:27:44;;;;;;;48.80;27.30;;;;;;;5.54;79.11;96599.09;5050917;28;20078;-64
2023/01/09 10:30:29;;;;;;;52.40;29.00;;;;;;;5.52;79.20;96598.25;5050973;28;20049;-64
2023/01/09 10:33:06;;;;;;;56.42;31.77;;;;;;;5.58;78.88;96603.34;5050880;28;20052;-64
2023/01/09 10:35:51;;;;;;;65.90;32.97;;;;;;;5.66;78.49;96604.06;5050824;28;20513;-63
2023/01/09 10:38:25;;;;;;;63.97;33.50;;;;;;;5.44;78.76;96593.19;5050954;28;20464;-64
2023/01/09 10:41:01;;;;;;;65.07;34.25;;;;;;;5.49;78.62;96580.16;5050620;28;20453;-65
2023/01/09 10:43:34;;;;;;;69.50;41.17;;;;;;;5.54;79.01;96583.53;5050525;28;20056;-62
2023/01/09 10:46:07;;;;;;;74.47;39.67;;;;;;;5.64;78.08;96586.81;5050693;28;20072;-64
2023/01/09 10:48:37;;;;;;;57.70;33.95;;;;;;;5.69;78.15;96579.81;5050692;28;20045;-63
2023/01/09 10:51:14;;;;;;;58.05;33.72;;;;;;;5.68;77.92;96578.94;5050647;28;20049;-66
2023/01/09 10:53:49;;;;;;;50.47;29.58;;;;;;;5.69;77.76;96569.44;5050589;28;20084;-66
2023/01/09 10:56:23;;;;;;;50.30;28.40;;;;;;;5.60;77.83;96565.22;5050451;28;20049;-62
2023/01/09 10:58:51;;;;;;;49.38;27.60;;;;;;;5.56;78.24;96561.84;5050476;28;20045;-66
2023/01/09 11:01:24;;;;;;;56.97;32.58;;;;;;;5.56;78.34;96553.19;5050432;28;20092;-64
2023/01/09 11:03:52;;;;;;;41.72;24.92;;;;;;;5.51;78.81;96549.84;5050551;28;20097;-62
2023/01/09 11:06:24;;;;;;;33.80;20.55;;;;;;;5.55;78.99;96549.78;5050450;28;20045;-63
2023/01/09 11:08:57;;;;;;;34.72;22.08;;;;;;;5.52;79.24;96546.34;5050341;28;20068;-65
2023/01/09 11:11:35;;;;;;;32.90;20.08;;;;;;;5.47;79.08;96551.63;5050242;28;20044;-64
2023/01/09 11:14:13;;;;;;;39.38;23.15;;;;;;;5.52;79.16;96552.41;5050203;28;20045;-61
2023/01/09 11:16:51;;;;;;;41.28;23.17;;;;;;;5.48;78.88;96553.31;5050223;28;20055;-66
2023/01/09 11:19:19;;;;;;;42.17;24.35;;;;;;;5.47;79.07;96550.75;5050321;28;20570;-66
2023/01/09 11:21:46;;;;;;;47.10;23.00;;;;;;;5.41;79.25;96554.31;5050114;28;20061;-64
2023/01/09 11:24:28;;;;;;;44.45;25.55;;;;;;;5.28;79.41;96548.50;5050180;28;20045;-63
2023/01/09 11:27:23;;;;;;;47.67;27.88;;;;;;;5.30;79.75;96555.34;5050249;28;20049;-64
2023/01/09 11:30:18;;;;;;;47.50;27.48;;;;;;;5.20;79.75;96560.75;5050122;28;20077;-65
2023/01/09 11:32:47;;;;;;;56.78;29.23;;;;;;;5.12;79.67;96551.31;5050123;28;20053;-63
2023/01/09 11:35:21;;;;;;;59.30;31.17;;;;;;;5.02;80.35;96553.22;5050018;28;20560;-63
2023/01/09 11:37:58;;;;;;;57.15;28.88;;;;;;;4.90;80.50;96546.50;5049960;28;20152;-66
2023/01/09 11:40:29;;;;;;;53.65;28.02;;;;;;;4.78;81.23;96544.94;5049800;28;20041;-63
2023/01/09 11:43:11;;;;;;;53.03;26.52;;;;;;;4.66;81.54;96537.34;5049632;28;20517;-64
2023/01/09 11:45:45;;;;;;;53.72;26.35;;;;;;;4.66;81.96;96539.91;5049904;28;20045;-65
2023/01/09 11:48:42;;;;;;;58.10;29.00;;;;;;;4.73;82.24;96540.72;5049901;28;20398;-65
2023/01/09 11:51:21;;;;;;;50.97;28.17;;;;;;;4.80;82.05;96539.72;5047715;28;20053;-64